Time;durP1;ratioP1;P1;durP2;ratioP2;P2;SDS_P1;SDS_P2;PMS_P1;PMS_P2;Temp;Humidity;BMP_temperature;BMP_pressure;BME280_temperature;BME280_humidity;BME280_pressure;Samples;Min_cycle;Max_cycle;Signal;HPM_P1;HPM_P2
2023/10/12 00:01:57;;;;;;;11.00;5.73;;;;;;;14.65;100.00;99879.78;4983522;28;20242;-65
2023/10/12 00:04:45;;;;;;;11.30;6.13;;;;;;;14.59;100.00;99887.16;4990238;28;20527;-65
2023/10/12 00:07:15;;;;;;;12.50;5.90;;;;;;;14.71;100.00;99898.38;4988197;28;20486;-65
2023/10/12 00:09:48;;;;;;;11.57;6.07;;;;;;;14.85;100.00;99893.81;4992670;28;20183;-65
2023/10/12 00:12:23;;;;;;;13.43;5.87;;;;;;;14.90;100.00;99888.28;4997153;28;20355;-66
2023/10/12 00:14:49;;;;;;;11.20;4.97;;;;;;;14.91;100.00;99892.53;4992592;28;20185;-64
2023/10/12 00:17:18;;;;;;;9.10;5.63;;;;;;;14.87;100.00;99887.69;4990947;28;20203;-64
2023/10/12 00:19:44;;;;;;;11.57;5.90;;;;;;;14.78;100.00;99886.63;4990973;28;20210;-64
2023/10/12 00:22:11;;;;;;;12.07;5.43;;;;;;;14.72;100.00;99885.31;4996855;28;20226;-65
2023/10/12 00:24:38;;;;;;;9.30;5.43;;;;;;;14.71;100.00;99890.59;4992233;28;20631;-65
2023/10/12 00:27:05;;;;;;;13.77;5.73;;;;;;;14.70;100.00;99892.38;4992119;28;20554;-65
2023/10/12 00:29:32;;;;;;;15.57;5.73;;;;;;;14.73;100.00;99884.38;4990956;28;20191;-65
2023/10/12 00:31:58;;;;;;;10.27;5.57;;;;;;;14.67;100.00;99882.25;4981785;28;20238;-64
2023/10/12 00:34:23;;;;;;;13.10;5.93;;;;;;;14.58;100.00;99873.38;4992753;28;20631;-64
2023/10/12 00:36:52;;;;;;;12.87;5.47;;;;;;;14.61;100.00;99880.09;4991876;28;20203;-64
2023/10/12 00:39:20;;;;;;;10.33;5.50;;;;;;;14.68;100.00;99868.38;4992287;28;20186;-64
2023/10/12 00:41:46;;;;;;;10.43;5.63;;;;;;;14.71;100.00;99869.91;4982693;28;20605;-65
2023/10/12 00:44:12;;;;;;;11.47;5.93;;;;;;;14.65;100.00;99871.19;4994170;28;20182;-65
2023/10/12 00:46:41;;;;;;;18.93;6.93;;;;;;;14.62;100.00;99871.38;4990271;28;20182;-64
2023/10/12 00:49:19;;;;;;;15.27;6.03;;;;;;;14.42;100.00;99865.94;4990744;28;20639;-64
2023/10/12 00:51:51;;;;;;;11.43;6.27;;;;;;;14.41;100.00;99871.22;4994419;28;20746;-65
2023/10/12 00:54:40;;;;;;;12.67;6.30;;;;;;;14.30;100.00;99866.84;4990900;28;20647;-65
2023/10/12 00:57:06;;;;;;;16.77;6.77;;;;;;;14.24;100.00;99864.69;4992086;28;20186;-64
2023/10/12 00:59:33;;;;;;;10.57;6.63;;;;;;;14.18;100.00;99866.81;4991733;28;20199;-65
2023/10/12 01:02:00;;;;;;;9.63;6.73;;;;;;;14.18;100.00;99863.41;4995976;28;20725;-64
2023/10/12 01:04:27;;;;;;;12.90;6.77;;;;;;;14.00;100.00;99865.56;4990227;28;20191;-65
2023/10/12 01:06:52;;;;;;;12.77;6.60;;;;;;;13.84;100.00;99865.84;4992031;28;20275;-65
2023/10/12 01:09:20;;;;;;;11.10;6.67;;;;;;;13.70;100.00;99856.50;4992064;28;20254;-65
2023/10/12 01:11:58;;;;;;;15.53;6.73;;;;;;;13.63;100.00;99863.88;4994681;28;20305;-65
2023/10/12 01:14:26;;;;;;;20.53;7.43;;;;;;;13.52;100.00;99861.22;4992403;28;20734;-64
2023/10/12 01:17:03;;;;;;;13.93;6.43;;;;;;;13.57;100.00;99859.16;4990582;28;20681;-64
2023/10/12 01:19:33;;;;;;;18.97;6.97;;;;;;;13.48;100.00;99863.22;4991700;28;20179;-64
2023/10/12 01:22:12;;;;;;;16.20;7.23;;;;;;;13.51;100.00;99869.91;4995722;28;20740;-64
2023/10/12 01:24:44;;;;;;;12.20;7.20;;;;;;;13.54;100.00;99864.53;4991753;28;20183;-64
2023/10/12 01:27:12;;;;;;;12.30;7.13;;;;;;;13.79;100.00;99855.88;4991811;28;20187;-64
2023/10/12 01:29:38;;;;;;;9.77;6.83;;;;;;;13.85;100.00;99857.16;4990693;28;20191;-64
2023/10/12 01:34:38;;;;;;;12.33;6.93;;;;;;;13.85;100.00;99858.00;4991451;28;20278;-65
2023/10/12 01:37:11;;;;;;;11.30;7.07;;;;;;;13.87;100.00;99857.88;4991889;28;20574;-65
2023/10/12 01:39:40;;;;;;;10.90;6.80;;;;;;;13.94;100.00;99851.34;4990500;28;20187;-64
2023/10/12 01:42:06;;;;;;;18.43;8.03;;;;;;;13.98;100.00;99852.75;4991929;28;20227;-65
2023/10/12 01:44:32;;;;;;;13.17;6.97;;;;;;;13.97;100.00;99848.53;4991504;28;20187;-65
2023/10/12 01:46:57;;;;;;;16.70;7.30;;;;;;;13.95;100.00;99842.63;4991308;28;20172;-65
2023/10/12 01:49:23;;;;;;;14.13;7.30;;;;;;;14.01;100.00;99847.34;4990544;28;20197;-65
2023/10/12 01:51:49;;;;;;;15.57;6.83;;;;;;;13.96;100.00;99846.06;4995334;28;20241;-64
2023/10/12 01:54:22;;;;;;;20.37;7.37;;;;;;;13.82;100.00;99857.41;4996855;28;20315;-65
2023/10/12 01:56:51;;;;;;;16.07;7.60;;;;;;;13.85;100.00;99852.84;4993463;28;20620;-64
2023/10/12 01:59:19;;;;;;;14.87;6.73;;;;;;;13.87;100.00;99850.94;4992678;28;20187;-65
2023/10/12 02:01:46;;;;;;;19.20;7.63;;;;;;;13.80;100.00;99846.34;4990725;28;20325;-64
2023/10/12 02:04:13;;;;;;;15.10;6.77;;;;;;;13.91;100.00;99858.50;4991481;28;20214;-66
2023/10/12 02:06:39;;;;;;;17.03;7.17;;;;;;;13.81;100.00;99855.75;4982101;28;20250;-64
2023/10/12 02:09:10;;;;;;;14.27;8.00;;;;;;;13.65;100.00;99856.81;4994871;28;20614;-64
2023/10/12 02:11:43;;;;;;;13.60;7.10;;;;;;;13.62;100.00;99853.63;4986022;28;20237;-65
2023/10/12 02:14:11;;;;;;;14.53;7.07;;;;;;;13.73;100.00;99853.72;4996859;28;20211;-65
2023/10/12 02:16:52;;;;;;;15.63;6.70;;;;;;;13.78;100.00;99868.88;4993383;28;20211;-66
2023/10/12 02:19:29;;;;;;;14.30;7.27;;;;;;;13.82;100.00;99871.13;4993453;28;20176;-64
2023/10/12 02:21:59;;;;;;;21.33;6.70;;;;;;;13.81;100.00;99866.91;4997480;28;20393;-65
2023/10/12 02:24:25;;;;;;;14.40;7.53;;;;;;;13.81;100.00;99884.19;4992478;28;20643;-66
2023/10/12 02:29:18;;;;;;;18.17;7.27;;;;;;;13.75;100.00;99894.97;4994087;28;20541;-65
2023/10/12 02:31:56;;;;;;;18.30;7.27;;;;;;;13.79;100.00;99894.63;4996125;28;20233;-66
2023/10/12 02:34:31;;;;;;;12.57;7.20;;;;;;;13.62;100.00;99892.41;4983361;28;20175;-65
2023/10/12 02:37:16;;;;;;;14.97;7.77;;;;;;;13.64;100.00;99899.09;4992592;28;20179;-64
2023/10/12 02:39:42;;;;;;;18.40;7.57;;;;;;;13.65;100.00;99894.78;4994398;28;20188;-63
2023/10/12 02:44:51;;;;;;;11.10;7.33;;;;;;;13.74;100.00;99896.69;4994113;28;20192;-65
2023/10/12 02:47:23;;;;;;;16.13;7.90;;;;;;;13.69;100.00;99891.03;4994235;28;20175;-65
2023/10/12 02:52:32;;;;;;;15.37;7.00;;;;;;;13.67;100.00;99908.44;4982087;28;20386;-65
2023/10/12 02:55:07;;;;;;;16.07;7.53;;;;;;;13.77;100.00;99900.81;4994109;28;20179;-65
2023/10/12 02:57:32;;;;;;;15.90;7.00;;;;;;;13.89;100.00;99887.03;4992723;28;20194;-66
2023/10/12 03:00:18;;;;;;;13.47;7.07;;;;;;;13.90;100.00;99885.28;4994021;28;20179;-66
2023/10/12 03:02:45;;;;;;;15.57;6.57;;;;;;;14.00;100.00;99881.94;4981687;28;20713;-66
2023/10/12 03:05:17;;;;;;;13.43;6.77;;;;;;;14.13;100.00;99868.91;4993678;28;20175;-66
2023/10/12 03:07:44;;;;;;;13.97;6.27;;;;;;;14.30;100.00;99870.28;4993826;28;20658;-65
2023/10/12 03:10:24;;;;;;;12.70;6.67;;;;;;;14.31;100.00;99890.03;4983092;28;20198;-66
2023/10/12 03:12:54;;;;;;;11.63;6.03;;;;;;;14.45;100.00;99886.41;5005380;28;20175;-65
2023/10/12 03:15:21;;;;;;;13.43;5.73;;;;;;;14.82;100.00;99881.09;4993872;28;20626;-65
2023/10/12 03:17:53;;;;;;;9.63;5.30;;;;;;;15.06;100.00;99890.53;4993398;28;20289;-67
2023/10/12 03:20:29;;;;;;;13.37;5.17;;;;;;;15.30;100.00;99905.13;4985945;28;20615;-65
2023/10/12 03:23:12;;;;;;;13.23;5.10;;;;;;;15.55;100.00;99906.59;5004543;28;20274;-65
2023/10/12 03:25:43;;;;;;;10.87;4.70;;;;;;;15.77;100.00;99897.94;4993272;28;20194;-66
2023/10/12 03:28:13;;;;;;;10.63;4.63;;;;;;;15.91;100.00;99888.28;4993689;28;20273;-64
2023/10/12 03:30:53;;;;;;;14.17;5.10;;;;;;;16.03;100.00;99892.47;4960382;28;20269;-65
2023/10/12 03:33:18;;;;;;;13.83;5.50;;;;;;;16.12;100.00;99894.34;4976053;28;20207;-64
2023/10/12 03:36:12;;;;;;;10.60;5.03;;;;;;;16.18;100.00;99897.38;4991165;28;20639;-64
2023/10/12 03:38:38;;;;;;;9.20;4.77;;;;;;;16.21;100.00;99910.94;4991526;28;20183;-64
2023/10/12 03:43:49;;;;;;;9.27;5.13;;;;;;;16.45;100.00;99907.28;4993773;28;20287;-65
2023/10/12 03:46:26;;;;;;;8.40;4.80;;;;;;;16.52;100.00;99915.38;4992876;28;20234;-65
2023/10/12 03:49:16;;;;;;;9.40;4.33;;;;;;;16.51;100.00;99914.56;4991577;28;20171;-64
2023/10/12 03:51:42;;;;;;;11.97;5.17;;;;;;;16.48;100.00;99916.59;4994961;28;20288;-64
2023/10/12 03:56:51;;;;;;;15.17;4.60;;;;;;;16.57;100.00;99911.47;4992768;28;20266;-66
2023/10/12 03:59:26;;;;;;;16.53;4.57;;;;;;;16.64;100.00;99903.97;4992928;28;20190;-65
2023/10/12 04:01:54;;;;;;;10.17;4.83;;;;;;;16.73;100.00;99910.16;4983876;28;20246;-66
2023/10/12 04:07:15;;;;;;;8.63;4.60;;;;;;;16.73;100.00;99905.81;4992758;28;20206;-65
2023/10/12 04:09:43;;;;;;;9.80;4.77;;;;;;;16.80;100.00;99907.91;4992527;28;20191;-65
2023/10/12 04:13:07;;;;;;;11.17;4.50;;;;;;;16.81;100.00;99901.72;4982927;28;20706;-66
2023/10/12 04:14:58;;;;;;;11.20;4.50;;;;;;;16.79;100.00;99922.63;4994479;28;20539;-65
2023/10/12 04:23:34;;;;;;;14.90;5.23;;;;;;;16.81;100.00;99920.75;4961304;28;20676;-66
2023/10/12 04:25:32;;;;;;;10.30;4.70;;;;;;;16.78;100.00;99919.22;4975031;28;20215;-66
2023/10/12 04:36:25;;;;;;;10.50;5.17;;;;;;;16.89;100.00;99936.53;5009157;28;20201;-65
2023/10/12 04:38:57;;;;;;;10.13;4.47;;;;;;;16.85;100.00;99940.31;5009176;28;20209;-64
2023/10/12 04:41:26;;;;;;;7.93;4.70;;;;;;;16.89;100.00;99933.94;4998934;28;20258;-65
2023/10/12 04:44:06;;;;;;;10.93;4.90;;;;;;;16.91;100.00;99918.22;4999942;28;20214;-67
2023/10/12 04:46:39;;;;;;;9.60;4.40;;;;;;;16.93;100.00;99918.91;4990035;28;20270;-66
2023/10/12 04:51:41;;;;;;;11.83;4.93;;;;;;;16.96;100.00;99923.88;4995404;28;20237;-65
2023/10/12 04:54:17;;;;;;;15.83;4.87;;;;;;;16.92;100.00;99946.69;5002609;28;20297;-65
2023/10/12 04:59:27;;;;;;;12.17;5.00;;;;;;;16.75;100.00;99952.44;5009578;28;20194;-65
2023/10/12 05:04:38;;;;;;;13.67;5.40;;;;;;;16.62;100.00;99942.22;5005005;28;20209;-64
2023/10/12 05:09:48;;;;;;;9.63;4.83;;;;;;;16.48;100.00;99945.13;5008962;28;20190;-66
2023/10/12 05:12:14;;;;;;;8.57;4.50;;;;;;;16.26;100.00;99936.50;4978813;28;20226;-65
2023/10/12 05:14:39;;;;;;;9.37;5.00;;;;;;;16.29;100.00;99942.25;4990889;28;20538;-65
2023/10/12 05:17:07;;;;;;;12.17;5.60;;;;;;;16.46;100.00;99955.66;4992068;28;20207;-66
2023/10/12 05:19:33;;;;;;;9.53;4.57;;;;;;;16.59;100.00;99960.66;4990296;28;20755;-65
2023/10/12 05:21:58;;;;;;;11.40;5.23;;;;;;;16.61;100.00;99938.00;4995960;28;20318;-65
2023/10/12 05:24:24;;;;;;;15.33;5.13;;;;;;;16.28;100.00;99903.47;4992150;28;20186;-66
2023/10/12 05:26:57;;;;;;;8.13;4.97;;;;;;;16.37;100.00;99915.69;4992630;28;20541;-64
2023/10/12 05:31:59;;;;;;;6.87;4.77;;;;;;;16.48;100.00;99971.91;4997718;28;20234;-65
2023/10/12 05:39:46;;;;;;;9.17;5.00;;;;;;;16.08;100.00;99907.69;4995334;28;20207;-65
2023/10/12 05:42:15;;;;;;;14.40;5.20;;;;;;;16.25;100.00;99906.31;4985083;28;20233;-64
2023/10/12 05:44:43;;;;;;;7.90;4.53;;;;;;;16.11;100.00;99884.91;4993335;28;20215;-65
2023/10/12 05:47:11;;;;;;;15.07;5.07;;;;;;;16.28;100.00;99911.25;4993841;28;20206;-64
2023/10/12 05:49:41;;;;;;;13.67;5.20;;;;;;;16.39;100.00;99949.31;4993940;28;20627;-65
2023/10/12 05:52:08;;;;;;;12.37;5.03;;;;;;;16.41;100.00;99975.94;4973813;28;20667;-66
2023/10/12 05:54:34;;;;;;;13.07;5.87;;;;;;;16.44;100.00;99983.50;4993318;28;20180;-67
2023/10/12 05:57:18;;;;;;;8.20;4.83;;;;;;;16.24;100.00;99977.34;4981222;28;20241;-65
2023/10/12 05:59:45;;;;;;;13.93;5.13;;;;;;;16.26;100.00;99976.25;4994096;28;20549;-65
2023/10/12 06:02:10;;;;;;;14.27;4.87;;;;;;;16.23;100.00;99973.09;4999144;28;20240;-65
2023/10/12 06:04:36;;;;;;;19.27;5.63;;;;;;;16.27;100.00;100018.59;4994597;28;20206;-65
2023/10/12 06:07:03;;;;;;;14.43;5.37;;;;;;;16.18;100.00;100055.69;4995019;28;20195;-65
2023/10/12 06:09:35;;;;;;;11.20;5.10;;;;;;;16.12;100.00;100060.41;4992846;28;20172;-64
2023/10/12 06:12:13;;;;;;;15.20;5.63;;;;;;;16.03;100.00;100074.09;4997914;28;20262;-65
2023/10/12 06:14:39;;;;;;;13.83;6.10;;;;;;;16.06;100.00;100065.25;4990343;28;20184;-65
2023/10/12 06:17:05;;;;;;;12.97;5.83;;;;;;;16.13;100.00;100063.81;4994766;28;20203;-65
2023/10/12 06:19:34;;;;;;;14.60;5.97;;;;;;;16.04;100.00;100073.16;4994493;28;20218;-64
2023/10/12 06:22:13;;;;;;;9.80;5.23;;;;;;;16.13;100.00;100061.22;4998729;28;20227;-65
2023/10/12 06:24:41;;;;;;;9.03;5.30;;;;;;;16.18;100.00;100066.88;4989371;28;20642;-65
2023/10/12 06:27:22;;;;;;;13.20;6.10;;;;;;;16.27;100.00;100066.16;4993002;28;20358;-65
2023/10/12 06:29:48;;;;;;;13.37;5.70;;;;;;;16.40;100.00;100066.00;4994341;28;20187;-64
2023/10/12 06:32:19;;;;;;;10.73;6.27;;;;;;;16.57;100.00;100067.25;4985801;28;20308;-63
2023/10/12 06:35:02;;;;;;;11.87;6.13;;;;;;;16.68;100.00;100063.78;4993616;28;20282;-64
2023/10/12 06:43:57;;;;;;;12.77;6.27;;;;;;;16.86;100.00;100081.44;5005264;28;20203;-63
2023/10/12 06:45:47;;;;;;;12.53;6.23;;;;;;;16.87;100.00;100078.69;4993887;28;20176;-63
2023/10/12 06:48:43;;;;;;;14.57;6.23;;;;;;;16.75;100.00;100057.13;4993463;28;20550;-63
2023/10/12 06:51:13;;;;;;;11.97;5.80;;;;;;;16.76;100.00;100076.16;4992138;28;20232;-63
2023/10/12 06:53:41;;;;;;;16.83;6.07;;;;;;;16.86;100.00;100086.63;4991957;28;20199;-63
2023/10/12 06:58:40;;;;;;;16.93;6.20;;;;;;;16.50;100.00;100058.31;4993476;28;20270;-63
2023/10/12 07:03:49;;;;;;;14.00;7.57;;;;;;;16.73;100.00;100061.66;4989765;28;20323;-64
2023/10/12 07:06:16;;;;;;;12.00;6.37;;;;;;;16.66;100.00;100060.50;4981469;28;20644;-64
2023/10/12 07:08:45;;;;;;;15.57;6.47;;;;;;;16.74;100.00;100089.25;4984724;28;20199;-63
2023/10/12 07:11:13;;;;;;;13.17;6.50;;;;;;;16.88;100.00;100095.94;4980775;28;20226;-63
2023/10/12 07:13:39;;;;;;;13.80;6.40;;;;;;;17.04;100.00;100092.13;4990080;28;20488;-65
2023/10/12 07:16:07;;;;;;;14.30;7.63;;;;;;;16.77;100.00;100093.41;4991805;28;20179;-66
2023/10/12 07:18:42;;;;;;;18.27;7.07;;;;;;;16.51;100.00;100080.72;4992840;28;20550;-65
2023/10/12 07:21:19;;;;;;;14.20;6.93;;;;;;;16.50;100.00;100058.31;4989030;28;20234;-65
2023/10/12 07:23:44;;;;;;;18.27;8.40;;;;;;;16.48;100.00;100077.56;4984507;28;20229;-64
2023/10/12 07:26:12;;;;;;;16.50;6.97;;;;;;;16.58;100.00;100091.44;4991764;28;20175;-65
2023/10/12 07:28:41;;;;;;;16.33;7.33;;;;;;;16.70;100.00;100090.44;4992650;28;20187;-66
2023/10/12 07:36:35;;;;;;;13.63;6.67;;;;;;;16.60;100.00;100079.97;4984687;28;20215;-64
2023/10/12 07:39:20;;;;;;;16.30;7.37;;;;;;;16.26;100.00;100056.72;4992713;28;20199;-64
2023/10/12 07:42:01;;;;;;;19.00;6.20;;;;;;;16.27;100.00;100039.38;4984070;28;20230;-64
2023/10/12 07:44:28;;;;;;;14.67;6.10;;;;;;;16.36;100.00;100038.66;4992905;28;20175;-65
2023/10/12 07:46:57;;;;;;;18.33;6.20;;;;;;;16.55;100.00;100073.53;4991712;28;20186;-65
2023/10/12 07:49:38;;;;;;;17.03;6.97;;;;;;;16.75;100.00;100090.91;4992414;28;20183;-65
2023/10/12 07:54:47;;;;;;;11.47;5.83;;;;;;;17.02;100.00;100089.66;4992405;28;20199;-66
2023/10/12 07:57:16;;;;;;;16.90;6.90;;;;;;;17.14;100.00;100089.59;4992397;28;20205;-64
2023/10/12 07:59:54;;;;;;;15.83;6.83;;;;;;;17.15;100.00;100091.25;4991038;28;20185;-64
2023/10/12 08:02:43;;;;;;;15.17;6.63;;;;;;;16.87;100.00;100091.69;4961239;28;20317;-64
2023/10/12 08:05:43;;;;;;;10.00;6.80;;;;;;;16.89;100.00;100096.75;4979062;28;20217;-64
2023/10/12 08:13:25;;;;;;;11.87;6.23;;;;;;;16.66;100.00;100088.22;4991459;28;20193;-64
2023/10/12 08:21:03;;;;;;;17.43;6.20;;;;;;;17.08;100.00;100096.94;4989386;28;20253;-67
2023/10/12 08:23:29;;;;;;;15.43;6.63;;;;;;;17.00;100.00;100091.53;4990286;28;20285;-65
2023/10/12 08:26:00;;;;;;;14.17;6.53;;;;;;;16.91;100.00;100107.84;4991864;28;20270;-65
2023/10/12 08:28:26;;;;;;;13.80;6.57;;;;;;;16.88;100.00;100113.28;4991972;28;20211;-65
2023/10/12 08:31:00;;;;;;;14.00;6.57;;;;;;;16.84;100.00;100117.91;4987539;28;20702;-66
2023/10/12 08:38:52;;;;;;;13.87;7.13;;;;;;;16.90;100.00;100121.78;4991429;28;20171;-65
2023/10/12 08:41:36;;;;;;;16.10;7.57;;;;;;;16.67;100.00;100154.81;4983868;28;20249;-66
2023/10/12 08:44:05;;;;;;;14.57;7.67;;;;;;;16.34;100.00;100146.94;4995596;28;20674;-66
2023/10/12 08:52:08;;;;;;;14.17;10.43;;;;;;;16.08;100.00;100149.78;4995504;28;20257;-64
2023/10/12 08:54:43;;;;;;;15.00;11.60;;;;;;;15.96;100.00;100148.16;4986502;28;20183;-64
2023/10/12 08:57:20;;;;;;;19.47;14.23;;;;;;;15.89;100.00;100149.53;4989080;28;20258;-64
2023/10/12 09:00:23;;;;;;;20.53;16.60;;;;;;;15.98;100.00;100160.06;4990402;28;20179;-64
2023/10/12 09:02:49;;;;;;;18.13;16.07;;;;;;;15.98;100.00;100156.66;4977618;28;20223;-65
2023/10/12 09:05:24;;;;;;;28.87;26.27;;;;;;;16.07;100.00;100163.72;4995769;28;20191;-65
2023/10/12 09:08:05;;;;;;;28.80;25.80;;;;;;;16.14;100.00;100172.69;4986659;28;20197;-64
2023/10/12 09:10:49;;;;;;;30.03;26.67;;;;;;;15.97;100.00;100171.38;4986746;28;20740;-64
2023/10/12 09:13:17;;;;;;;26.70;22.50;;;;;;;15.91;100.00;100168.44;4997862;28;20167;-63
2023/10/12 09:15:45;;;;;;;36.43;33.40;;;;;;;15.77;100.00;100167.66;4994007;28;20552;-66
2023/10/12 09:18:16;;;;;;;58.13;53.87;;;;;;;15.64;100.00;100167.78;5006415;28;20214;-66
2023/10/12 09:20:58;;;;;;;50.20;46.27;;;;;;;15.69;100.00;100166.59;4990137;28;20238;-66
2023/10/12 09:23:46;;;;;;;55.93;51.47;;;;;;;15.75;100.00;100159.19;5002620;28;20195;-65
2023/10/12 09:26:16;;;;;;;54.33;50.27;;;;;;;15.81;100.00;100158.72;4994890;28;20191;-66
2023/10/12 09:31:26;;;;;;;39.70;35.97;;;;;;;15.36;100.00;100142.25;4975980;28;20633;-66
2023/10/12 09:34:31;;;;;;;33.87;30.90;;;;;;;15.30;100.00;100136.56;4986618;28;20194;-66
2023/10/12 09:36:44;;;;;;;39.17;35.77;;;;;;;15.45;100.00;100142.38;4994941;28;20195;-64
2023/10/12 09:39:14;;;;;;;40.60;37.23;;;;;;;15.49;100.00;100151.59;4996355;28;20169;-65
2023/10/12 09:41:54;;;;;;;34.07;30.47;;;;;;;15.58;100.00;100150.09;4978224;28;20277;-64
2023/10/12 09:44:26;;;;;;;38.73;35.47;;;;;;;15.82;100.00;100144.00;4996239;28;20180;-65
2023/10/12 09:46:55;;;;;;;79.17;73.47;;;;;;;16.02;100.00;100150.25;4992116;28;20230;-65
2023/10/12 09:49:23;;;;;;;91.07;84.93;;;;;;;16.06;100.00;100143.06;4993339;28;20175;-65
2023/10/12 09:52:03;;;;;;;110.23;103.03;;;;;;;15.90;100.00;100151.19;4968490;28;20341;-65
2023/10/12 09:54:56;;;;;;;48.00;44.50;;;;;;;15.79;100.00;100146.81;4994494;28;20215;-64
2023/10/12 09:57:25;;;;;;;21.73;19.10;;;;;;;15.99;100.00;100142.72;4994621;28;20275;-65
2023/10/12 10:00:06;;;;;;;22.57;20.63;;;;;;;15.77;100.00;100141.72;4993256;28;20531;-65
2023/10/12 10:02:33;;;;;;;39.27;36.03;;;;;;;15.81;100.00;100137.13;4972656;28;20330;-66
2023/10/12 10:05:01;;;;;;;68.80;63.87;;;;;;;15.96;100.00;100140.34;4994009;28;20191;-66
2023/10/12 10:07:35;;;;;;;55.10;51.30;;;;;;;16.05;100.00;100144.84;4989712;28;20187;-66
2023/10/12 10:10:05;;;;;;;49.53;46.17;;;;;;;15.90;100.00;100144.25;4992966;28;20178;-66
2023/10/12 10:12:36;;;;;;;39.40;36.77;;;;;;;15.93;100.00;100143.19;4966153;28;20219;-65
2023/10/12 10:15:10;;;;;;;62.90;58.87;;;;;;;16.03;100.00;100151.94;4993318;28;20203;-64
2023/10/12 10:17:46;;;;;;;42.03;38.43;;;;;;;16.11;100.00;100149.56;4993674;28;20272;-66
2023/10/12 10:20:56;;;;;;;55.50;51.30;;;;;;;16.19;100.00;100148.16;4983976;28;20516;-66
2023/10/12 10:23:03;;;;;;;56.53;52.57;;;;;;;16.25;100.00;100137.31;5004385;28;20234;-66
2023/10/12 10:25:42;;;;;;;41.13;37.43;;;;;;;16.21;100.00;100136.72;4994545;28;20171;-65
2023/10/12 10:28:13;;;;;;;100.93;94.30;;;;;;;16.35;100.00;100155.56;4994319;28;20273;-66
2023/10/12 10:30:42;;;;;;;111.53;104.23;;;;;;;16.35;100.00;100161.59;4985608;28;20330;-68
2023/10/12 10:33:12;;;;;;;83.63;77.97;;;;;;;16.41;100.00;100161.13;4985997;28;20187;-66
2023/10/12 10:36:10;;;;;;;37.37;34.87;;;;;;;16.14;100.00;100153.69;4992425;28;20195;-65
2023/10/12 10:38:39;;;;;;;27.10;24.70;;;;;;;16.21;100.00;100154.88;4988690;28;20179;-66
2023/10/12 10:41:17;;;;;;;29.90;27.00;;;;;;;16.14;100.00;100149.31;4983671;28;20222;-66
2023/10/12 10:43:43;;;;;;;41.43;38.40;;;;;;;16.16;100.00;100148.38;4990985;28;20251;-66
2023/10/12 10:46:13;;;;;;;55.00;51.40;;;;;;;16.35;100.00;100152.97;4989637;28;20228;-65
2023/10/12 10:48:42;;;;;;;67.23;62.17;;;;;;;16.43;100.00;100161.81;4992349;28;20237;-66
2023/10/12 10:51:18;;;;;;;57.10;52.97;;;;;;;16.42;100.00;100157.56;4997179;28;20302;-66
2023/10/12 10:53:46;;;;;;;48.00;44.43;;;;;;;16.44;100.00;100163.44;4984296;28;20240;-67
2023/10/12 10:56:13;;;;;;;60.07;56.03;;;;;;;16.49;100.00;100155.31;4993819;28;20237;-67
2023/10/12 10:58:39;;;;;;;50.40;46.70;;;;;;;16.55;100.00;100144.44;4993814;28;20647;-66
2023/10/12 11:01:12;;;;;;;66.40;61.30;;;;;;;16.61;100.00;100150.94;4980755;28;20239;-65
2023/10/12 11:03:39;;;;;;;43.80;40.70;;;;;;;16.62;100.00;100144.78;4985193;28;20927;-67
2023/10/12 11:06:08;;;;;;;53.00;49.23;;;;;;;16.78;100.00;100150.41;4989109;28;20513;-66
2023/10/12 11:08:34;;;;;;;69.03;64.17;;;;;;;16.79;100.00;100143.44;4989404;28;20659;-66
2023/10/12 11:13:34;;;;;;;60.50;56.23;;;;;;;17.03;100.00;100132.03;4999990;28;20278;-65
2023/10/12 11:16:20;;;;;;;58.07;54.43;;;;;;;17.02;100.00;100136.41;4993580;28;20179;-65
2023/10/12 11:18:49;;;;;;;40.73;37.77;;;;;;;17.04;100.00;100131.94;4993110;28;20249;-65
2023/10/12 11:21:15;;;;;;;53.70;49.93;;;;;;;17.11;100.00;100129.66;4980760;28;20235;-66
2023/10/12 11:23:44;;;;;;;29.67;27.40;;;;;;;17.05;100.00;100120.56;4998272;28;20203;-65
2023/10/12 11:26:17;;;;;;;36.53;33.90;;;;;;;17.21;100.00;100114.13;4991233;28;20308;-66
2023/10/12 11:28:46;;;;;;;18.43;16.80;;;;;;;17.25;100.00;100099.91;4992228;28;20218;-65
2023/10/12 11:31:20;;;;;;;34.73;32.43;;;;;;;17.20;100.00;100092.50;4971884;28;20226;-66
2023/10/12 11:33:49;;;;;;;21.77;19.47;;;;;;;17.10;100.00;100100.25;4981975;28;20274;-65
2023/10/12 11:36:24;;;;;;;60.93;57.07;;;;;;;17.20;100.00;100092.50;4993400;28;20179;-65
2023/10/12 11:39:21;;;;;;;90.87;85.27;;;;;;;17.22;100.00;100102.78;4993100;28;20186;-63
2023/10/12 11:42:06;;;;;;;41.97;39.07;;;;;;;17.42;100.00;100108.91;4981877;28;20223;-65
2023/10/12 11:44:36;;;;;;;70.90;66.10;;;;;;;17.75;100.00;100107.84;4992857;28;20187;-66
2023/10/12 11:47:06;;;;;;;61.07;56.83;;;;;;;17.76;100.00;100111.28;4990478;28;20187;-66
2023/10/12 11:49:46;;;;;;;11.43;9.47;;;;;;;17.61;100.00;100099.56;4989535;28;20661;-65
2023/10/12 11:52:16;;;;;;;41.23;38.47;;;;;;;17.72;100.00;100095.13;4985509;28;20230;-68
2023/10/12 11:54:41;;;;;;;42.83;39.80;;;;;;;17.88;100.00;100089.41;4991137;28;20179;-65
2023/10/12 11:57:07;;;;;;;60.13;56.07;;;;;;;18.04;100.00;100095.94;4993013;28;20186;-65
2023/10/12 11:59:35;;;;;;;61.60;57.57;;;;;;;18.07;100.00;100093.06;4991789;28;20179;-66
2023/10/12 12:02:08;;;;;;;46.40;43.43;;;;;;;18.00;100.00;100090.19;4979958;28;20238;-65
2023/10/12 12:04:39;;;;;;;43.87;41.07;;;;;;;17.95;100.00;100089.75;4991978;28;20327;-66
2023/10/12 12:07:10;;;;;;;44.37;41.53;;;;;;;17.98;100.00;100092.09;4992352;28;20661;-64
2023/10/12 12:09:39;;;;;;;48.03;44.73;;;;;;;18.07;100.00;100098.28;4992469;28;20669;-65
2023/10/12 12:12:12;;;;;;;62.50;58.10;;;;;;;18.19;100.00;100086.00;4983604;28;20218;-65
2023/10/12 12:14:46;;;;;;;26.83;24.67;;;;;;;18.42;100.00;100083.97;4991982;28;20202;-66
2023/10/12 12:17:11;;;;;;;26.57;24.37;;;;;;;18.39;100.00;100077.28;4990477;28;20208;-66
2023/10/12 12:19:38;;;;;;;17.53;16.10;;;;;;;18.53;100.00;100073.44;4991804;28;20191;-70
2023/10/12 12:22:04;;;;;;;27.37;25.23;;;;;;;18.75;100.00;100068.09;4996164;28;20230;-66
2023/10/12 12:24:29;;;;;;;28.87;26.87;;;;;;;18.91;100.00;100075.38;4990348;28;20198;-65
2023/10/12 12:26:55;;;;;;;15.40;14.00;;;;;;;19.05;100.00;100074.94;4978255;28;20536;-65
2023/10/12 12:29:27;;;;;;;16.07;14.53;;;;;;;19.15;100.00;100065.34;4991979;28;20183;-66
2023/10/12 12:31:54;;;;;;;14.00;12.80;;;;;;;19.16;100.00;100059.16;4982635;28;20317;-66
2023/10/12 12:34:38;;;;;;;13.63;10.77;;;;;;;19.11;100.00;100056.13;4990761;28;20207;-65
2023/10/12 12:37:07;;;;;;;9.93;7.80;;;;;;;18.83;100.00;100069.03;4991116;28;20205;-64
2023/10/12 12:39:34;;;;;;;10.50;9.50;;;;;;;18.91;100.00;100054.53;4990591;28;20644;-66
2023/10/12 12:42:00;;;;;;;14.10;11.83;;;;;;;18.83;100.00;100045.59;4981766;28;20222;-65
2023/10/12 12:44:25;;;;;;;12.83;10.07;;;;;;;18.49;100.00;100046.03;4991856;28;20187;-65
2023/10/12 12:46:50;;;;;;;13.30;12.00;;;;;;;18.46;100.00;100048.88;4990114;28;20188;-67
2023/10/12 12:49:16;;;;;;;17.93;16.20;;;;;;;18.29;100.00;100039.16;4992158;28;20191;-68
2023/10/12 12:51:41;;;;;;;22.67;20.70;;;;;;;18.14;100.00;100046.53;4989617;28;20234;-68
2023/10/12 12:54:07;;;;;;;28.40;25.90;;;;;;;17.86;100.00;100052.31;4994656;28;20268;-67
2023/10/12 12:56:32;;;;;;;44.17;41.07;;;;;;;17.69;100.00;100043.34;4991544;28;20713;-70
2023/10/12 12:58:59;;;;;;;55.27;51.33;;;;;;;17.57;100.00;100047.00;4992397;28;20289;-70
2023/10/12 13:01:27;;;;;;;93.30;87.60;;;;;;;17.59;100.00;100039.91;4985160;28;20709;-70
2023/10/12 13:03:55;;;;;;;65.37;61.00;;;;;;;17.45;100.00;100025.44;4991269;28;20231;-69
2023/10/12 13:06:20;;;;;;;88.93;83.10;;;;;;;17.52;100.00;100041.38;4991834;28;20172;-68